createdAt,value
2018-03-11T00:00:59.777Z,99.90
2018-03-11T00:03:27.772Z,99.90
2018-03-11T00:05:55.784Z,99.90
2018-03-11T00:08:23.808Z,99.90
2018-03-11T00:10:51.811Z,99.90
2018-03-11T00:13:20.604Z,99.90
2018-03-11T00:15:48.812Z,99.90
2018-03-11T00:18:16.812Z,99.90
2018-03-11T00:20:44.831Z,99.90
2018-03-11T00:23:12.839Z,99.90
2018-03-11T00:25:41.023Z,99.90
2018-03-11T00:28:09.760Z,99.90
2018-03-11T00:30:37.777Z,99.90
2018-03-11T00:33:06.533Z,99.90
2018-03-11T00:35:34.553Z,99.90
2018-03-11T00:38:03.360Z,99.90
2018-03-11T00:40:32.130Z,99.90
2018-03-11T00:43:00.132Z,99.90
2018-03-11T00:45:29.707Z,99.90
2018-03-11T00:47:57.716Z,99.90
2018-03-11T00:50:25.723Z,99.90
2018-03-11T00:52:54.488Z,99.90
2018-03-11T00:55:22.509Z,99.90
2018-03-11T00:57:51.556Z,99.90
2018-03-11T01:00:19.572Z,99.90
2018-03-11T01:02:47.597Z,99.90
2018-03-11T01:05:15.614Z,99.90
2018-03-11T01:07:43.625Z,99.90
2018-03-11T01:10:11.616Z,99.90
2018-03-11T01:12:39.728Z,99.90
2018-03-11T01:15:07.786Z,99.90
2018-03-11T01:17:36.280Z,99.90
2018-03-11T01:20:04.297Z,99.90
2018-03-11T01:22:32.318Z,99.90
2018-03-11T01:25:00.312Z,99.90
2018-03-11T01:27:28.324Z,99.90
2018-03-11T01:29:57.113Z,99.90
2018-03-11T01:32:25.140Z,99.90
2018-03-11T01:34:53.177Z,99.90
2018-03-11T01:37:21.153Z,99.90
2018-03-11T01:39:49.152Z,99.90
2018-03-11T01:42:17.928Z,99.90
2018-03-11T01:44:45.936Z,99.90
2018-03-11T01:47:14.691Z,99.90
2018-03-11T01:49:42.700Z,99.90
2018-03-11T01:52:10.717Z,99.90
2018-03-11T01:54:38.704Z,99.90
2018-03-11T01:57:06.729Z,99.90
2018-03-11T01:59:34.724Z,99.90
2018-03-11T02:02:02.712Z,99.90
2018-03-11T02:04:30.730Z,99.90
2018-03-11T02:06:59.499Z,99.90
2018-03-11T02:09:27.496Z,99.90
2018-03-11T02:11:56.272Z,99.90
2018-03-11T02:14:24.281Z,99.90
2018-03-11T02:16:53.050Z,99.90
2018-03-11T02:19:21.056Z,99.90
2018-03-11T02:21:49.069Z,99.90
2018-03-11T02:24:17.064Z,99.80
2018-03-11T02:26:45.073Z,99.70
2018-03-11T02:29:13.102Z,99.70
2018-03-11T02:31:41.860Z,99.50
2018-03-11T02:34:09.871Z,99.50
2018-03-11T02:36:37.885Z,99.60
2018-03-11T02:39:05.876Z,99.30
2018-03-11T02:41:33.884Z,99.30
2018-03-11T02:44:01.894Z,99.40
2018-03-11T02:46:29.884Z,99.40
2018-03-11T02:48:57.888Z,99.40
2018-03-11T02:51:25.896Z,99.40
2018-03-11T02:53:53.892Z,99.40
2018-03-11T02:56:21.900Z,99.40
2018-03-11T02:58:49.917Z,99.30
2018-03-11T03:01:18.685Z,99.10
2018-03-11T03:03:46.689Z,99.10
2018-03-11T03:06:15.465Z,99.40
2018-03-11T03:08:43.456Z,99.30
2018-03-11T03:11:11.461Z,99.30
2018-03-11T03:13:40.241Z,99.30
2018-03-11T03:16:08.248Z,99.30
2018-03-11T03:18:37.012Z,99.40
2018-03-11T03:21:05.024Z,99.40
2018-03-11T03:23:33.793Z,99.20
2018-03-11T03:26:01.800Z,99.20
2018-03-11T03:28:29.808Z,99.20
2018-03-11T03:30:57.814Z,99.20
2018-03-11T03:33:25.828Z,99.20
2018-03-11T03:35:53.877Z,99.50
2018-03-11T03:38:21.879Z,99.40
2018-03-11T03:40:49.892Z,99.40
2018-03-11T03:43:17.908Z,99.10
2018-03-11T03:45:45.900Z,98.90
2018-03-11T03:48:13.903Z,99.10
2018-03-11T03:50:41.922Z,99.10
2018-03-11T03:53:09.945Z,99.00
2018-03-11T03:55:37.956Z,99.10
2018-03-11T03:58:05.960Z,98.90
2018-03-11T04:00:34.944Z,98.80
2018-03-11T04:03:02.954Z,99.00
2018-03-11T04:05:30.964Z,98.90
2018-03-11T04:07:59.719Z,98.80
2018-03-11T04:10:28.492Z,98.90
2018-03-11T04:12:56.500Z,98.90
2018-03-11T04:15:24.497Z,98.80
2018-03-11T04:17:52.877Z,98.70
2018-03-11T04:20:20.891Z,98.90
2018-03-11T04:22:49.674Z,98.90
2018-03-11T04:25:17.940Z,98.80
2018-03-11T04:27:45.936Z,98.80
2018-03-11T04:30:13.928Z,98.70
2018-03-11T04:32:41.965Z,98.60
2018-03-11T04:35:09.973Z,98.30
2018-03-11T04:37:37.958Z,97.80
2018-03-11T04:40:05.967Z,97.80
2018-03-11T04:42:33.973Z,97.50
2018-03-11T04:45:02.727Z,97.50
2018-03-11T04:47:30.727Z,97.50
2018-03-11T04:49:58.744Z,97.40
2018-03-11T04:52:27.499Z,97.80
2018-03-11T04:54:55.511Z,97.70
2018-03-11T04:57:24.292Z,98.10
2018-03-11T04:59:52.288Z,98.10
2018-03-11T05:02:20.291Z,98.10
2018-03-11T05:04:48.313Z,97.90
2018-03-11T05:07:16.309Z,97.90
2018-03-11T05:09:44.317Z,98.00
2018-03-11T05:12:12.320Z,97.80
2018-03-11T05:14:41.085Z,97.80
2018-03-11T05:17:09.911Z,97.80
2018-03-11T05:19:38.692Z,98.00
2018-03-11T05:22:06.686Z,98.00
2018-03-11T05:24:35.808Z,98.10
2018-03-11T05:27:04.576Z,99.60
2018-03-11T05:29:32.596Z,99.60
2018-03-11T05:32:01.376Z,99.70
2018-03-11T05:34:29.384Z,99.70
2018-03-11T05:36:58.972Z,99.40
2018-03-11T05:39:26.980Z,99.40
2018-03-11T05:41:55.752Z,99.20
2018-03-11T05:44:23.782Z,99.10
2018-03-11T05:46:52.532Z,98.60
2018-03-11T05:49:20.561Z,98.60
2018-03-11T05:51:49.616Z,98.60
2018-03-11T05:54:18.380Z,98.60
2018-03-11T05:56:46.383Z,98.50
2018-03-11T05:59:14.380Z,98.60
2018-03-11T06:01:42.396Z,98.80
2018-03-11T06:04:11.167Z,99.00
2018-03-11T06:06:39.148Z,99.00
2018-03-11T06:09:07.156Z,99.00
2018-03-11T06:11:35.932Z,99.40
2018-03-11T06:14:03.923Z,99.30
2018-03-11T06:16:31.936Z,99.50
2018-03-11T06:19:00.707Z,99.60
2018-03-11T06:21:28.972Z,99.90
2018-03-11T06:23:56.987Z,99.70
2018-03-11T06:26:25.004Z,99.60
2018-03-11T06:28:53.005Z,99.60
2018-03-11T06:31:21.024Z,99.70
2018-03-11T06:33:49.024Z,99.70
2018-03-11T06:36:17.792Z,99.90
2018-03-11T06:38:45.813Z,99.90
2018-03-11T06:41:14.576Z,99.90
2018-03-11T06:43:42.577Z,99.90
2018-03-11T06:46:10.588Z,99.90
2018-03-11T06:48:39.356Z,99.90
2018-03-11T06:51:07.373Z,99.90
2018-03-11T06:53:36.177Z,99.90
2018-03-11T06:56:04.952Z,99.90
2018-03-11T06:58:32.948Z,99.90
2018-03-11T07:01:01.729Z,99.90
2018-03-11T07:03:29.732Z,99.90
2018-03-11T07:05:58.493Z,99.90
2018-03-11T07:08:26.508Z,99.90
2018-03-11T07:10:54.593Z,99.70
2018-03-11T07:13:22.530Z,99.30
2018-03-11T07:15:50.565Z,99.30
2018-03-11T07:18:19.350Z,99.10
2018-03-11T07:20:47.341Z,99.00
2018-03-11T07:23:15.344Z,99.00
2018-03-11T07:25:43.349Z,99.00
2018-03-11T07:28:11.352Z,98.90
2018-03-11T07:30:39.369Z,99.10
2018-03-11T07:33:07.381Z,98.90
2018-03-11T07:35:35.372Z,98.60
2018-03-11T07:38:03.384Z,98.40
2018-03-11T07:40:31.392Z,98.40
2018-03-11T07:42:59.393Z,98.10
2018-03-11T07:45:28.181Z,97.80
2018-03-11T07:47:56.188Z,97.80
2018-03-11T07:50:24.956Z,96.80
2018-03-11T07:52:52.976Z,96.70
2018-03-11T07:55:21.780Z,96.00
2018-03-11T07:57:49.780Z,95.80
2018-03-11T08:00:17.886Z,95.30
2018-03-11T08:02:45.900Z,95.50
2018-03-11T08:05:13.890Z,94.70
2018-03-11T08:07:41.894Z,94.70
2018-03-11T08:10:11.094Z,93.20
2018-03-11T08:12:40.456Z,93.80
2018-03-11T08:15:09.248Z,92.70
2018-03-11T08:17:37.261Z,92.70
2018-03-11T08:20:05.257Z,92.30
2018-03-11T08:22:33.268Z,91.20
2018-03-11T08:25:02.040Z,88.00
2018-03-11T08:27:30.036Z,88.10
2018-03-11T08:29:58.819Z,86.90
2018-03-11T08:32:26.824Z,86.70
2018-03-11T08:34:55.589Z,85.50
2018-03-11T08:37:23.592Z,85.30
2018-03-11T08:39:51.602Z,85.00
2018-03-11T08:42:19.593Z,83.20
2018-03-11T08:44:47.609Z,82.70
2018-03-11T08:47:15.621Z,81.40
2018-03-11T08:49:43.604Z,79.70
2018-03-11T08:52:11.608Z,78.30
2018-03-11T08:54:40.393Z,76.00
2018-03-11T08:57:08.376Z,75.90
2018-03-11T08:59:36.376Z,76.80
2018-03-11T09:02:05.172Z,77.10
2018-03-11T09:04:33.932Z,74.70
2018-03-11T09:07:01.944Z,74.70
2018-03-11T09:09:30.601Z,75.40
2018-03-11T09:11:58.589Z,72.10
2018-03-11T09:14:26.604Z,74.50
2018-03-11T09:16:54.620Z,69.90
2018-03-11T09:19:22.604Z,71.30
2018-03-11T09:21:50.624Z,70.40
2018-03-11T09:24:18.629Z,70.30
2018-03-11T09:26:46.642Z,68.70
2018-03-11T09:29:14.615Z,70.90
2018-03-11T09:31:43.379Z,69.80
2018-03-11T09:34:11.372Z,69.80
2018-03-11T09:36:39.372Z,68.90
2018-03-11T09:39:08.148Z,68.60
2018-03-11T09:41:36.136Z,68.70
2018-03-11T09:44:04.131Z,64.20
2018-03-11T09:46:32.140Z,62.00
2018-03-11T09:49:00.142Z,62.80
2018-03-11T09:51:28.140Z,63.00
2018-03-11T09:53:56.157Z,63.60
2018-03-11T09:56:24.153Z,60.50
2018-03-11T09:58:52.933Z,59.60
2018-03-11T10:01:20.948Z,59.50
2018-03-11T10:03:49.706Z,58.30
2018-03-11T10:06:17.720Z,58.20
2018-03-11T10:08:46.496Z,59.10
2018-03-11T10:11:14.519Z,58.90
2018-03-11T10:13:43.318Z,54.80
2018-03-11T10:16:11.330Z,54.70
2018-03-11T10:18:39.360Z,53.60
2018-03-11T10:21:07.352Z,53.10
2018-03-11T10:23:36.129Z,53.30
2018-03-11T10:26:04.126Z,53.20
2018-03-11T10:28:32.160Z,54.90
2018-03-11T10:31:00.200Z,51.50
2018-03-11T10:33:28.193Z,50.90
2018-03-11T10:35:56.992Z,51.40
2018-03-11T10:38:25.751Z,52.10
2018-03-11T10:40:53.752Z,52.00
2018-03-11T10:43:21.808Z,50.50
2018-03-11T10:45:49.792Z,51.10
2018-03-11T10:48:17.788Z,50.90
2018-03-11T10:50:45.831Z,50.20
2018-03-11T10:53:14.573Z,47.80
2018-03-11T10:55:42.571Z,47.40
2018-03-11T10:58:10.580Z,47.20
2018-03-11T11:00:43.307Z,46.10
2018-03-11T11:03:17.148Z,46.00
2018-03-11T11:05:45.164Z,48.00
2018-03-11T11:08:13.921Z,46.70
2018-03-11T11:10:41.928Z,46.60
2018-03-11T11:13:09.937Z,47.30
2018-03-11T11:15:38.696Z,44.60
2018-03-11T11:18:06.712Z,44.60
2018-03-11T11:20:34.712Z,45.30
2018-03-11T11:23:02.710Z,44.10
2018-03-11T11:25:30.749Z,44.60
2018-03-11T11:27:58.741Z,42.60
2018-03-11T11:30:27.504Z,44.10
2018-03-11T11:32:55.524Z,43.70
2018-03-11T11:35:23.528Z,46.20
2018-03-11T11:37:51.540Z,44.00
2018-03-11T11:40:19.560Z,42.40
2018-03-11T11:42:47.564Z,42.40
2018-03-11T11:45:16.327Z,42.70
2018-03-11T11:47:44.332Z,42.20
2018-03-11T11:50:12.341Z,42.70
2018-03-11T11:52:40.342Z,42.30
2018-03-11T11:55:09.164Z,39.40
2018-03-11T11:57:37.164Z,40.40
2018-03-11T12:00:05.195Z,38.10
2018-03-11T12:02:33.206Z,40.00
2018-03-11T12:05:01.212Z,40.00
2018-03-11T12:07:29.272Z,37.80
2018-03-11T12:09:57.285Z,38.40
2018-03-11T12:12:25.352Z,38.50
2018-03-11T12:14:53.355Z,37.80
2018-03-11T12:17:21.377Z,38.30
2018-03-11T12:19:50.136Z,37.50
2018-03-11T12:22:18.408Z,37.50
2018-03-11T12:24:47.179Z,38.40
2018-03-11T12:27:15.208Z,38.50
2018-03-11T12:29:43.203Z,38.10
2018-03-11T12:32:11.984Z,37.10
2018-03-11T12:34:39.992Z,37.00
2018-03-11T12:37:08.744Z,36.20
2018-03-11T12:39:36.760Z,36.20
2018-03-11T12:42:04.773Z,37.00
2018-03-11T12:44:32.771Z,36.20
2018-03-11T12:47:00.780Z,37.40
2018-03-11T12:49:28.792Z,37.80
2018-03-11T12:51:57.573Z,37.60
2018-03-11T12:54:25.577Z,37.60
2018-03-11T12:56:53.592Z,36.20
2018-03-11T12:59:21.591Z,34.80
2018-03-11T13:01:49.592Z,34.80
2018-03-11T13:04:17.604Z,35.00
2018-03-11T13:06:45.599Z,34.80
2018-03-11T13:09:14.392Z,36.50
2018-03-11T13:11:42.392Z,36.20
2018-03-11T13:14:11.149Z,35.30
2018-03-11T13:16:39.159Z,34.50
2018-03-11T13:19:07.173Z,36.60
2018-03-11T13:21:35.177Z,34.70
2018-03-11T13:24:03.189Z,37.20
2018-03-11T13:26:31.196Z,37.50
2018-03-11T13:29:00.332Z,36.80
2018-03-11T13:31:28.374Z,36.10
2018-03-11T13:34:08.296Z,34.90
2018-03-11T13:36:36.310Z,36.70
2018-03-11T13:39:16.134Z,36.70
2018-03-11T13:41:44.147Z,34.20
2018-03-11T13:44:12.160Z,35.00
2018-03-11T13:46:52.000Z,34.60
2018-03-11T13:49:20.011Z,36.70
2018-03-11T13:52:00.780Z,35.50
2018-03-11T13:54:28.732Z,35.40
2018-03-11T13:57:08.689Z,32.30
2018-03-11T13:59:36.741Z,33.00
2018-03-11T14:02:05.486Z,30.70
2018-03-11T14:04:33.497Z,30.60
2018-03-11T14:07:02.360Z,29.00
2018-03-11T14:09:30.365Z,29.30
2018-03-11T14:11:58.377Z,31.80
2018-03-11T14:14:27.160Z,28.70
2018-03-11T14:16:55.152Z,28.70
2018-03-11T14:19:23.941Z,29.00
2018-03-11T14:21:51.955Z,29.00
2018-03-11T14:24:19.969Z,28.30
2018-03-11T14:26:47.992Z,28.20
2018-03-11T14:29:16.004Z,28.80
2018-03-11T14:31:44.008Z,27.70
2018-03-11T14:34:12.019Z,29.10
2018-03-11T14:36:40.037Z,28.30
2018-03-11T14:39:08.804Z,28.90
2018-03-11T14:41:38.828Z,28.70
2018-03-11T14:44:06.852Z,29.60
2018-03-11T14:46:35.629Z,31.30
2018-03-11T14:49:03.639Z,31.30
2018-03-11T14:51:32.437Z,32.90
2018-03-11T14:54:01.205Z,32.10
2018-03-11T14:56:29.279Z,31.90
2018-03-11T14:58:57.289Z,33.60
2018-03-11T15:01:25.292Z,32.20
2018-03-11T15:03:54.356Z,33.40
2018-03-11T15:06:22.379Z,33.30
2018-03-11T15:08:50.364Z,34.40
2018-03-11T15:11:19.137Z,33.90
2018-03-11T15:13:47.148Z,33.80
2018-03-11T15:16:16.684Z,34.10
2018-03-11T15:18:44.688Z,34.10
2018-03-11T15:21:12.708Z,34.60
2018-03-11T15:23:40.693Z,35.30
2018-03-11T15:26:08.696Z,35.90
2018-03-11T15:28:37.472Z,35.30
2018-03-11T15:31:05.460Z,35.30
2018-03-11T15:33:33.468Z,35.60
2018-03-11T15:36:02.249Z,38.10
2018-03-11T15:38:30.245Z,38.00
2018-03-11T15:40:59.344Z,38.80
2018-03-11T15:43:27.348Z,38.60
2018-03-11T15:45:55.348Z,39.60
2018-03-11T15:48:23.369Z,39.70
2018-03-11T15:50:51.381Z,39.60
2018-03-11T15:53:20.152Z,40.20
2018-03-11T15:55:48.165Z,40.00
2018-03-11T15:58:16.188Z,40.70
2018-03-11T16:00:44.184Z,41.80
2018-03-11T16:03:12.205Z,41.80
2018-03-11T16:05:40.207Z,42.20
2018-03-11T16:08:08.968Z,42.60
2018-03-11T16:10:36.968Z,42.40
2018-03-11T16:13:04.984Z,42.70
2018-03-11T16:15:32.984Z,42.90
2018-03-11T16:18:01.001Z,42.50
2018-03-11T16:20:29.027Z,43.50
2018-03-11T16:22:56.995Z,41.90
2018-03-11T16:25:25.772Z,43.00
2018-03-11T16:27:53.778Z,42.90
2018-03-11T16:30:22.540Z,42.00
2018-03-11T16:32:50.544Z,41.90
2018-03-11T16:35:18.557Z,41.90
2018-03-11T16:37:47.321Z,41.20
2018-03-11T16:40:15.328Z,41.20
2018-03-11T16:42:44.105Z,40.80
2018-03-11T16:45:12.095Z,40.70
2018-03-11T16:47:40.106Z,40.80
2018-03-11T16:50:08.885Z,41.40
2018-03-11T16:52:36.884Z,41.30
2018-03-11T16:55:05.665Z,41.30
2018-03-11T16:57:33.669Z,41.20
2018-03-11T17:00:02.430Z,41.90
2018-03-11T17:02:30.435Z,41.90
2018-03-11T17:04:58.437Z,42.10
2018-03-11T17:07:27.652Z,43.00
2018-03-11T17:09:56.424Z,43.70
2018-03-11T17:12:24.441Z,43.70
2018-03-11T17:14:53.200Z,44.10
2018-03-11T17:17:21.209Z,44.10
2018-03-11T17:19:49.999Z,44.80
2018-03-11T17:22:17.988Z,44.90
2018-03-11T17:24:46.760Z,45.30
2018-03-11T17:27:14.771Z,45.20
2018-03-11T17:29:42.756Z,45.40
2018-03-11T17:32:11.568Z,45.70
2018-03-11T17:34:40.329Z,45.90
2018-03-11T17:37:08.319Z,45.70
2018-03-11T17:39:36.328Z,46.10
2018-03-11T17:42:05.108Z,46.70
2018-03-11T17:44:33.106Z,46.70
2018-03-11T17:47:01.108Z,46.80
2018-03-11T17:49:29.109Z,46.90
2018-03-11T17:51:57.119Z,47.10
2018-03-11T17:54:25.155Z,47.30
2018-03-11T17:56:53.917Z,48.00
2018-03-11T17:59:21.904Z,48.00
2018-03-11T18:01:49.906Z,49.00
2018-03-11T18:04:18.672Z,49.00
2018-03-11T18:06:46.673Z,49.00
2018-03-11T18:09:14.678Z,48.90
2018-03-11T18:11:43.444Z,49.40
2018-03-11T18:14:11.436Z,49.40
2018-03-11T18:16:39.436Z,50.20
2018-03-11T18:19:08.207Z,50.10
2018-03-11T18:21:36.229Z,50.10
2018-03-11T18:24:05.012Z,50.30
2018-03-11T18:26:33.016Z,50.20
2018-03-11T18:29:02.072Z,51.40
2018-03-11T18:31:30.078Z,51.40
2018-03-11T18:33:58.075Z,50.90
2018-03-11T18:36:26.832Z,52.10
2018-03-11T18:38:54.836Z,52.10
2018-03-11T18:41:22.848Z,52.30
2018-03-11T18:43:51.609Z,52.20
2018-03-11T18:46:19.661Z,52.20
2018-03-11T18:48:47.661Z,56.20
2018-03-11T18:51:15.657Z,55.70
2018-03-11T18:53:43.665Z,55.40
2018-03-11T18:56:11.680Z,55.40
2018-03-11T18:58:39.672Z,56.40
2018-03-11T19:01:07.668Z,54.60
2018-03-11T19:03:35.742Z,54.00
2018-03-11T19:06:03.675Z,53.70
2018-03-11T19:08:31.712Z,53.70
2018-03-11T19:10:59.737Z,54.00
2018-03-11T19:13:27.746Z,54.10
2018-03-11T19:15:56.517Z,54.30
2018-03-11T19:18:24.582Z,54.30
2018-03-11T19:20:53.289Z,55.10
2018-03-11T19:23:21.304Z,55.10
2018-03-11T19:25:50.088Z,55.60
2018-03-11T19:28:18.092Z,55.50
2018-03-11T19:30:46.889Z,56.60
2018-03-11T19:33:14.888Z,56.50
2018-03-11T19:35:43.820Z,56.50
2018-03-11T19:38:11.833Z,56.40
2018-03-11T19:40:39.849Z,56.80
2018-03-11T19:43:08.644Z,57.00
2018-03-11T19:45:37.440Z,58.50
2018-03-11T19:48:06.263Z,58.00
2018-03-11T19:50:34.267Z,58.00
2018-03-11T19:53:02.405Z,57.80
2018-03-11T19:55:30.448Z,58.00
2018-03-11T19:57:59.300Z,59.00
2018-03-11T20:00:27.309Z,58.90
2018-03-11T20:02:55.325Z,60.00
2018-03-11T20:05:23.414Z,60.10
2018-03-11T20:07:52.196Z,60.90
2018-03-11T20:10:20.244Z,60.90
2018-03-11T20:12:48.253Z,61.00
2018-03-11T20:15:16.269Z,61.50
2018-03-11T20:17:44.325Z,61.20
2018-03-11T20:20:12.332Z,61.30
2018-03-11T20:22:40.351Z,61.90
2018-03-11T20:25:09.177Z,62.40
2018-03-11T20:27:37.208Z,62.30
2018-03-11T20:30:05.262Z,62.00
2018-03-11T20:32:33.288Z,62.00
2018-03-11T20:35:01.354Z,61.90
2018-03-11T20:37:29.424Z,61.40
2018-03-11T20:39:57.470Z,61.50
2018-03-11T20:42:25.615Z,61.00
2018-03-11T20:44:53.662Z,61.50
2018-03-11T20:47:21.709Z,61.60
2018-03-11T20:49:50.488Z,62.60
2018-03-11T20:52:18.499Z,62.60
2018-03-11T20:54:47.333Z,62.80
2018-03-11T20:57:16.355Z,62.30
2018-03-11T20:59:44.372Z,62.20
2018-03-11T21:02:12.383Z,61.40
2018-03-11T21:04:40.400Z,61.30
2018-03-11T21:07:08.446Z,60.50
2018-03-11T21:09:37.216Z,61.90
2018-03-11T21:12:05.224Z,61.90
2018-03-11T21:14:34.028Z,64.70
2018-03-11T21:17:02.805Z,65.40
2018-03-11T21:19:30.820Z,65.30
2018-03-11T21:21:58.858Z,65.50
2018-03-11T21:24:26.869Z,64.60
2018-03-11T21:26:55.685Z,65.80
2018-03-11T21:29:24.466Z,65.60
2018-03-11T21:31:52.517Z,66.10
2018-03-11T21:34:21.658Z,66.70
2018-03-11T21:36:49.734Z,66.50
2018-03-11T21:39:17.753Z,68.40
2018-03-11T21:41:45.803Z,69.20
2018-03-11T21:44:13.848Z,69.10
2018-03-11T21:46:41.867Z,68.50
2018-03-11T21:49:09.860Z,68.40
2018-03-11T21:51:38.649Z,67.20
2018-03-11T21:54:06.991Z,67.10
2018-03-11T21:56:34.748Z,67.50
2018-03-11T21:59:03.518Z,67.80
2018-03-11T22:01:31.528Z,67.60
2018-03-11T22:03:59.594Z,68.20
2018-03-11T22:06:27.603Z,68.70
2018-03-11T22:08:55.636Z,70.10
2018-03-11T22:11:23.652Z,70.60
2018-03-11T22:13:52.458Z,68.90
2018-03-11T22:16:21.249Z,68.90
2018-03-11T22:18:49.248Z,68.80
2018-03-11T22:21:17.281Z,68.20
2018-03-11T22:23:45.301Z,67.90
2018-03-11T22:26:14.060Z,67.00
2018-03-11T22:28:42.067Z,66.90
2018-03-11T22:31:10.084Z,68.20
2018-03-11T22:33:38.112Z,68.80
2018-03-11T22:36:06.133Z,68.40
2018-03-11T22:38:34.921Z,67.30
2018-03-11T22:41:02.932Z,67.90
2018-03-11T22:43:30.952Z,68.00
2018-03-11T22:45:58.973Z,69.60
2018-03-11T22:48:26.987Z,70.50
2018-03-11T22:50:55.026Z,70.70
2018-03-11T22:53:23.083Z,70.30
2018-03-11T22:55:51.101Z,70.80
2018-03-11T22:58:19.128Z,70.50
2018-03-11T23:00:47.149Z,73.00
2018-03-11T23:03:15.153Z,74.60
2018-03-11T23:05:43.167Z,74.20
2018-03-11T23:08:11.189Z,75.80
2018-03-11T23:10:39.184Z,75.60
2018-03-11T23:13:07.208Z,76.80
2018-03-11T23:15:35.989Z,77.20
2018-03-11T23:18:04.776Z,75.50
2018-03-11T23:20:32.793Z,75.40
2018-03-11T23:23:01.565Z,74.60
2018-03-11T23:25:29.559Z,74.70
2018-03-11T23:27:58.353Z,76.30
2018-03-11T23:30:26.369Z,76.30
2018-03-11T23:32:54.362Z,76.30
2018-03-11T23:35:22.388Z,76.30
2018-03-11T23:37:50.400Z,76.10
2018-03-11T23:40:19.174Z,76.10
2018-03-11T23:42:47.177Z,76.10
2018-03-11T23:45:15.947Z,76.80
2018-03-11T23:47:43.949Z,76.60
2018-03-11T23:50:11.952Z,76.90
2018-03-11T23:52:40.733Z,76.20
2018-03-11T23:55:08.728Z,76.10
2018-03-11T23:57:36.750Z,75.90
